Canadian Warship 707 — CGBV — position and weather

sailwx.info

Track history (hours):
 
Tides and Currents Weather Stations Pressure Air Temp Water Temp Dewpoint Dewpoint Depression Visibility Wind Speed Wind Dir Waves Ship Positions

Canadian Warship 707

Last reported at 2015-Mar-31 12:33 UTC. Time now 2015-Mar-31 12:44 UTC.
Position N 44°39' W 063°34'.

Length 55 m; draft 3.3 m.

Type: Military. MMSI: 316200000.

Date/timePositionNaut miles runAvg speedWind from/ knotsBaromVisibWave heightAir tempDewpointWater temp
2015-Mar-31 12:33N 44°39' W 063°34'1 0.6
2015-Mar-31 11:31N 44°39' W 063°34'0 0.1
2015-Mar-31 10:33N 44°39' W 063°34'0 0.0
2015-Mar-31 09:33N 44°39' W 063°34'0 0.0
2015-Mar-31 08:33N 44°39' W 063°34'0 0.0
2015-Mar-31 07:33N 44°39' W 063°34'0 0.0
2015-Mar-31 06:33N 44°39' W 063°34'0 0.0
2015-Mar-31 05:33N 44°39' W 063°34'0 0.0
2015-Mar-31 04:32N 44°39' W 063°34'0 0.0
2015-Mar-31 03:33N 44°39' W 063°34'0 0.0
2015-Mar-31 02:31N 44°39' W 063°34'0 0.0
2015-Mar-31 01:32N 44°39' W 063°34'0 0.0
2015-Mar-31 00:33N 44°39' W 063°34'0 0.0
2015-Mar-30 23:32N 44°39' W 063°34'0 0.0
2015-Mar-30 22:33N 44°39' W 063°34'2 2.5
2015-Mar-30 21:33N 44°37' W 063°33'  
2015-Mar-24 00:13N 26°40' W 079°43'6 8.6
2015-Mar-23 23:33N 26°34' W 079°43'9 9.4
2015-Mar-23 22:33N 26°25' W 079°44'1212.4
2015-Mar-23 21:33N 26°13' W 079°45'1515.4
2015-Mar-23 20:33N 25°57' W 079°46'  
Track history (hours):
 
Tides and Currents Weather Stations Pressure Air Temp Water Temp Dewpoint Dewpoint Depression Visibility Wind Speed Wind Dir Waves Ship Positions

Canadian Warship 707

Last reported at 2015-Mar-31 12:33 UTC. Time now 2015-Mar-31 12:44 UTC.
Position N 44°39' W 063°34'.

Length 55 m; draft 3.3 m.

Type: Military. MMSI: 316200000.

Date/timePositionNaut miles runAvg speedWind from/ knotsBaromVisibWave heightAir tempDewpointWater temp
2015-Mar-31 12:33N 44°39' W 063°34'1 0.6
2015-Mar-31 11:31N 44°39' W 063°34'0 0.1
2015-Mar-31 10:33N 44°39' W 063°34'0 0.0
2015-Mar-31 09:33N 44°39' W 063°34'0 0.0
2015-Mar-31 08:33N 44°39' W 063°34'0 0.0
2015-Mar-31 07:33N 44°39' W 063°34'0 0.0
2015-Mar-31 06:33N 44°39' W 063°34'0 0.0
2015-Mar-31 05:33N 44°39' W 063°34'0 0.0
2015-Mar-31 04:32N 44°39' W 063°34'0 0.0
2015-Mar-31 03:33N 44°39' W 063°34'0 0.0
2015-Mar-31 02:31N 44°39' W 063°34'0 0.0
2015-Mar-31 01:32N 44°39' W 063°34'0 0.0
2015-Mar-31 00:33N 44°39' W 063°34'0 0.0
2015-Mar-30 23:32N 44°39' W 063°34'0 0.0
2015-Mar-30 22:33N 44°39' W 063°34'2 2.5
2015-Mar-30 21:33N 44°37' W 063°33'  
2015-Mar-24 00:13N 26°40' W 079°43'6 8.6
2015-Mar-23 23:33N 26°34' W 079°43'9 9.4
2015-Mar-23 22:33N 26°25' W 079°44'1212.4
2015-Mar-23 21:33N 26°13' W 079°45'1515.4
2015-Mar-23 20:33N 25°57' W 079°46'  

Dump ship's entire track history